Main page
METAR-TAF:

METAR-TAF

Airports :

Jönköping Airport

Jönköping, Sweden

latitude: 57-46N, longitude: 014-05E, elevation: 226 m

Current weather observation

The report was made 39 minutes ago, at 17:50 UTC
Wind 5 kt from the North/Northeast
Temperature 20°C
Humidity 60%
Pressure 1012 hPa
Visibility 10 km or more
no clouds below 1500 m and no cumulonimbus

METAR: ESGJ 211750Z 03005KT CAVOK 20/12 Q1012

Time: 20:29 (18:29 UTC)

Forecast

The report was made 3 hours and 59 minutes ago, at 14:30 UTC
Forecast valid from 21 at 15 UTC to 21 at 18 UTC
Wind 4 kt from the East
Visibility 10 km or more
no clouds below 1500 m and no cumulonimbus

TAF: ESGJ 211430Z 2115/2118 08004KT CAVOK

Weather observations and forecasts of more than 4000 airports (METAR and TAF reports).

The available stations are represented by yellow and red dots on the map.

Hover mouse over dot to see the name of the station.

Then click to see weather observations and forecasts.

To change the map : click on the green buttons with a black cross to zoom in, on the green button with a dash to zoom out, or on the green arrows for adjacent maps.


METAR-TAF: